sensor_id;sensor_type;location;lat;lon;timestamp;P1;P2;P0
61760;PMS5003;47664;51.660;-0.100;2023-05-23T00:02:18;21;16;
61760;PMS5003;47664;51.660;-0.100;2023-05-23T00:04:46;18;13;
61760;PMS5003;47664;51.660;-0.100;2023-05-23T00:07:14;18;15;
61760;PMS5003;47664;51.660;-0.100;2023-05-23T00:09:42;14;12;
61760;PMS5003;47664;51.660;-0.100;2023-05-23T00:12:10;14;14;
61760;PMS5003;47664;51.660;-0.100;2023-05-23T00:14:37;14;14;
61760;PMS5003;47664;51.660;-0.100;2023-05-23T00:17:04;13;12;
61760;PMS5003;47664;51.660;-0.100;2023-05-23T00:19:34;17;14;
61760;PMS5003;47664;51.660;-0.100;2023-05-23T00:22:02;19;13;
61760;PMS5003;47664;51.660;-0.100;2023-05-23T00:24:29;19;12;
61760;PMS5003;47664;51.660;-0.100;2023-05-23T00:26:56;13;12;
61760;PMS5003;47664;51.660;-0.100;2023-05-23T00:29:24;15;11;
61760;PMS5003;47664;51.660;-0.100;2023-05-23T00:31:51;17;17;
61760;PMS5003;47664;51.660;-0.100;2023-05-23T00:34:18;19;13;
61760;PMS5003;47664;51.660;-0.100;2023-05-23T00:36:46;11;11;
61760;PMS5003;47664;51.660;-0.100;2023-05-23T00:39:14;15;14;
61760;PMS5003;47664;51.660;-0.100;2023-05-23T00:41:41;16;14;
61760;PMS5003;47664;51.660;-0.100;2023-05-23T00:44:10;16;13;
61760;PMS5003;47664;51.660;-0.100;2023-05-23T00:46:38;14;12;
61760;PMS5003;47664;51.660;-0.100;2023-05-23T00:49:06;17;13;
61760;PMS5003;47664;51.660;-0.100;2023-05-23T00:51:34;18;13;
61760;PMS5003;47664;51.660;-0.100;2023-05-23T00:54:03;17;15;
61760;PMS5003;47664;51.660;-0.100;2023-05-23T00:56:32;13;12;
61760;PMS5003;47664;51.660;-0.100;2023-05-23T00:59:00;14;9;
61760;PMS5003;47664;51.660;-0.100;2023-05-23T01:01:27;14;13;
61760;PMS5003;47664;51.660;-0.100;2023-05-23T01:03:56;19;14;
61760;PMS5003;47664;51.660;-0.100;2023-05-23T01:06:23;15;15;
61760;PMS5003;47664;51.660;-0.100;2023-05-23T01:08:51;19;15;
61760;PMS5003;47664;51.660;-0.100;2023-05-23T01:11:29;24;18;
61760;PMS5003;47664;51.660;-0.100;2023-05-23T01:14:03;19;16;
61760;PMS5003;47664;51.660;-0.100;2023-05-23T01:16:39;18;14;
61760;PMS5003;47664;51.660;-0.100;2023-05-23T01:22:10;11;11;
61760;PMS5003;47664;51.660;-0.100;2023-05-23T01:24:50;12;12;
61760;PMS5003;47664;51.660;-0.100;2023-05-23T01:27:23;18;12;
61760;PMS5003;47664;51.660;-0.100;2023-05-23T01:29:58;16;14;
61760;PMS5003;47664;51.660;-0.100;2023-05-23T01:32:30;11;11;
61760;PMS5003;47664;51.660;-0.100;2023-05-23T01:34:59;18;13;
61760;PMS5003;47664;51.660;-0.100;2023-05-23T01:37:27;12;11;
61760;PMS5003;47664;51.660;-0.100;2023-05-23T01:39:54;13;10;
61760;PMS5003;47664;51.660;-0.100;2023-05-23T01:42:22;18;12;
61760;PMS5003;47664;51.660;-0.100;2023-05-23T01:44:50;15;13;
61760;PMS5003;47664;51.660;-0.100;2023-05-23T01:47:18;15;11;
61760;PMS5003;47664;51.660;-0.100;2023-05-23T01:49:47;21;11;
61760;PMS5003;47664;51.660;-0.100;2023-05-23T01:52:16;13;11;
61760;PMS5003;47664;51.660;-0.100;2023-05-23T01:54:44;12;9;
61760;PMS5003;47664;51.660;-0.100;2023-05-23T01:57:12;10;9;
61760;PMS5003;47664;51.660;-0.100;2023-05-23T01:59:40;13;13;
61760;PMS5003;47664;51.660;-0.100;2023-05-23T02:02:08;12;12;
61760;PMS5003;47664;51.660;-0.100;2023-05-23T02:04:36;18;14;
61760;PMS5003;47664;51.660;-0.100;2023-05-23T02:07:04;11;9;
61760;PMS5003;47664;51.660;-0.100;2023-05-23T02:09:32;14;13;
61760;PMS5003;47664;51.660;-0.100;2023-05-23T02:12:00;15;9;
61760;PMS5003;47664;51.660;-0.100;2023-05-23T02:14:28;12;11;
61760;PMS5003;47664;51.660;-0.100;2023-05-23T02:16:55;10;10;
61760;PMS5003;47664;51.660;-0.100;2023-05-23T02:19:23;11;9;
61760;PMS5003;47664;51.660;-0.100;2023-05-23T02:21:51;15;13;
61760;PMS5003;47664;51.660;-0.100;2023-05-23T02:24:19;11;11;
61760;PMS5003;47664;51.660;-0.100;2023-05-23T02:26:47;11;11;
61760;PMS5003;47664;51.660;-0.100;2023-05-23T02:29:15;13;10;
61760;PMS5003;47664;51.660;-0.100;2023-05-23T02:31:43;14;12;
61760;PMS5003;47664;51.660;-0.100;2023-05-23T02:34:10;15;13;
61760;PMS5003;47664;51.660;-0.100;2023-05-23T02:36:38;11;10;
61760;PMS5003;47664;51.660;-0.100;2023-05-23T02:39:05;16;13;
61760;PMS5003;47664;51.660;-0.100;2023-05-23T02:41:33;18;14;
61760;PMS5003;47664;51.660;-0.100;2023-05-23T02:44:00;14;13;
61760;PMS5003;47664;51.660;-0.100;2023-05-23T02:46:28;11;10;
61760;PMS5003;47664;51.660;-0.100;2023-05-23T02:48:56;15;11;
61760;PMS5003;47664;51.660;-0.100;2023-05-23T02:51:24;14;11;
61760;PMS5003;47664;51.660;-0.100;2023-05-23T02:53:51;14;11;
61760;PMS5003;47664;51.660;-0.100;2023-05-23T02:56:19;12;10;
61760;PMS5003;47664;51.660;-0.100;2023-05-23T02:58:46;14;13;
61760;PMS5003;47664;51.660;-0.100;2023-05-23T03:01:13;13;13;
61760;PMS5003;47664;51.660;-0.100;2023-05-23T03:03:41;13;13;
61760;PMS5003;47664;51.660;-0.100;2023-05-23T03:06:09;16;15;
61760;PMS5003;47664;51.660;-0.100;2023-05-23T03:08:36;17;11;
61760;PMS5003;47664;51.660;-0.100;2023-05-23T03:11:04;10;9;
61760;PMS5003;47664;51.660;-0.100;2023-05-23T03:13:32;11;11;
61760;PMS5003;47664;51.660;-0.100;2023-05-23T03:16:00;15;14;
61760;PMS5003;47664;51.660;-0.100;2023-05-23T03:18:28;13;10;
61760;PMS5003;47664;51.660;-0.100;2023-05-23T03:20:55;12;9;
61760;PMS5003;47664;51.660;-0.100;2023-05-23T03:23:23;10;10;
61760;PMS5003;47664;51.660;-0.100;2023-05-23T03:25:51;9;9;
61760;PMS5003;47664;51.660;-0.100;2023-05-23T03:28:18;15;10;
61760;PMS5003;47664;51.660;-0.100;2023-05-23T03:30:46;12;9;
61760;PMS5003;47664;51.660;-0.100;2023-05-23T03:33:14;11;8;
61760;PMS5003;47664;51.660;-0.100;2023-05-23T03:35:42;12;10;
61760;PMS5003;47664;51.660;-0.100;2023-05-23T03:38:09;11;7;
61760;PMS5003;47664;51.660;-0.100;2023-05-23T03:40:37;14;8;
61760;PMS5003;47664;51.660;-0.100;2023-05-23T03:43:05;12;8;
61760;PMS5003;47664;51.660;-0.100;2023-05-23T03:45:34;11;11;
61760;PMS5003;47664;51.660;-0.100;2023-05-23T03:48:03;10;9;
61760;PMS5003;47664;51.660;-0.100;2023-05-23T03:50:30;12;10;
61760;PMS5003;47664;51.660;-0.100;2023-05-23T03:52:58;13;10;
61760;PMS5003;47664;51.660;-0.100;2023-05-23T03:55:26;9;6;
61760;PMS5003;47664;51.660;-0.100;2023-05-23T03:57:53;9;9;
61760;PMS5003;47664;51.660;-0.100;2023-05-23T04:00:20;11;6;
61760;PMS5003;47664;51.660;-0.100;2023-05-23T04:02:48;12;12;
61760;PMS5003;47664;51.660;-0.100;2023-05-23T04:05:15;11;9;
61760;PMS5003;47664;51.660;-0.100;2023-05-23T04:07:44;14;14;
61760;PMS5003;47664;51.660;-0.100;2023-05-23T04:10:11;12;10;
61760;PMS5003;47664;51.660;-0.100;2023-05-23T04:12:39;13;10;
61760;PMS5003;47664;51.660;-0.100;2023-05-23T04:15:07;7;6;
61760;PMS5003;47664;51.660;-0.100;2023-05-23T04:17:35;12;8;
61760;PMS5003;47664;51.660;-0.100;2023-05-23T04:20:04;10;9;
61760;PMS5003;47664;51.660;-0.100;2023-05-23T04:22:33;11;10;
61760;PMS5003;47664;51.660;-0.100;2023-05-23T04:25:00;14;9;
61760;PMS5003;47664;51.660;-0.100;2023-05-23T04:27:28;11;9;
61760;PMS5003;47664;51.660;-0.100;2023-05-23T04:29:56;12;9;
61760;PMS5003;47664;51.660;-0.100;2023-05-23T04:32:23;10;6;
61760;PMS5003;47664;51.660;-0.100;2023-05-23T04:34:51;9;9;
61760;PMS5003;47664;51.660;-0.100;2023-05-23T04:37:19;7;7;
61760;PMS5003;47664;51.660;-0.100;2023-05-23T04:39:46;14;12;
61760;PMS5003;47664;51.660;-0.100;2023-05-23T04:42:14;13;11;
61760;PMS5003;47664;51.660;-0.100;2023-05-23T04:44:41;8;8;
61760;PMS5003;47664;51.660;-0.100;2023-05-23T04:47:09;11;9;
61760;PMS5003;47664;51.660;-0.100;2023-05-23T04:49:37;13;12;
61760;PMS5003;47664;51.660;-0.100;2023-05-23T04:52:05;8;8;
61760;PMS5003;47664;51.660;-0.100;2023-05-23T04:54:32;10;9;
61760;PMS5003;47664;51.660;-0.100;2023-05-23T04:57:00;13;11;
61760;PMS5003;47664;51.660;-0.100;2023-05-23T04:59:28;11;9;
61760;PMS5003;47664;51.660;-0.100;2023-05-23T05:01:56;9;8;
61760;PMS5003;47664;51.660;-0.100;2023-05-23T05:04:24;10;8;
61760;PMS5003;47664;51.660;-0.100;2023-05-23T05:06:51;10;6;
61760;PMS5003;47664;51.660;-0.100;2023-05-23T05:09:18;9;9;
61760;PMS5003;47664;51.660;-0.100;2023-05-23T05:11:46;9;6;
61760;PMS5003;47664;51.660;-0.100;2023-05-23T05:14:14;7;7;
61760;PMS5003;47664;51.660;-0.100;2023-05-23T05:18:28;9;7;
61760;PMS5003;47664;51.660;-0.100;2023-05-23T05:20:58;8;7;
61760;PMS5003;47664;51.660;-0.100;2023-05-23T05:23:26;7;7;
61760;PMS5003;47664;51.660;-0.100;2023-05-23T05:25:55;8;8;
61760;PMS5003;47664;51.660;-0.100;2023-05-23T05:28:22;9;7;
61760;PMS5003;47664;51.660;-0.100;2023-05-23T05:30:50;9;6;
61760;PMS5003;47664;51.660;-0.100;2023-05-23T05:33:17;6;4;
61760;PMS5003;47664;51.660;-0.100;2023-05-23T05:35:45;9;5;
61760;PMS5003;47664;51.660;-0.100;2023-05-23T05:38:13;6;6;
61760;PMS5003;47664;51.660;-0.100;2023-05-23T05:40:41;6;6;
61760;PMS5003;47664;51.660;-0.100;2023-05-23T05:43:08;16;11;
61760;PMS5003;47664;51.660;-0.100;2023-05-23T05:45:36;10;9;
61760;PMS5003;47664;51.660;-0.100;2023-05-23T05:52:41;8;6;
61760;PMS5003;47664;51.660;-0.100;2023-05-23T05:55:09;12;8;
61760;PMS5003;47664;51.660;-0.100;2023-05-23T05:57:37;6;6;
61760;PMS5003;47664;51.660;-0.100;2023-05-23T06:00:08;12;7;
61760;PMS5003;47664;51.660;-0.100;2023-05-23T06:02:38;7;5;
61760;PMS5003;47664;51.660;-0.100;2023-05-23T06:05:07;10;8;
61760;PMS5003;47664;51.660;-0.100;2023-05-23T06:07:36;8;8;
61760;PMS5003;47664;51.660;-0.100;2023-05-23T06:10:04;7;6;
61760;PMS5003;47664;51.660;-0.100;2023-05-23T06:12:33;11;9;
61760;PMS5003;47664;51.660;-0.100;2023-05-23T06:15:00;19;8;
61760;PMS5003;47664;51.660;-0.100;2023-05-23T06:17:28;8;7;
61760;PMS5003;47664;51.660;-0.100;2023-05-23T06:19:56;9;7;
61760;PMS5003;47664;51.660;-0.100;2023-05-23T06:22:23;9;8;
61760;PMS5003;47664;51.660;-0.100;2023-05-23T06:24:51;10;7;
61760;PMS5003;47664;51.660;-0.100;2023-05-23T06:27:19;9;7;
61760;PMS5003;47664;51.660;-0.100;2023-05-23T06:29:47;9;8;
61760;PMS5003;47664;51.660;-0.100;2023-05-23T06:32:15;8;7;
61760;PMS5003;47664;51.660;-0.100;2023-05-23T06:34:42;6;4;
61760;PMS5003;47664;51.660;-0.100;2023-05-23T06:37:09;6;5;
61760;PMS5003;47664;51.660;-0.100;2023-05-23T06:39:36;7;4;
61760;PMS5003;47664;51.660;-0.100;2023-05-23T06:42:03;8;6;
61760;PMS5003;47664;51.660;-0.100;2023-05-23T06:44:31;8;7;
61760;PMS5003;47664;51.660;-0.100;2023-05-23T06:46:59;14;8;
61760;PMS5003;47664;51.660;-0.100;2023-05-23T06:49:27;7;5;
61760;PMS5003;47664;51.660;-0.100;2023-05-23T06:51:55;10;7;
61760;PMS5003;47664;51.660;-0.100;2023-05-23T06:54:22;7;5;
61760;PMS5003;47664;51.660;-0.100;2023-05-23T06:56:49;10;7;
61760;PMS5003;47664;51.660;-0.100;2023-05-23T06:59:17;7;4;
61760;PMS5003;47664;51.660;-0.100;2023-05-23T07:01:45;8;5;
61760;PMS5003;47664;51.660;-0.100;2023-05-23T07:04:12;4;4;
61760;PMS5003;47664;51.660;-0.100;2023-05-23T07:06:40;9;9;
61760;PMS5003;47664;51.660;-0.100;2023-05-23T07:09:08;4;4;
61760;PMS5003;47664;51.660;-0.100;2023-05-23T07:11:35;7;6;
61760;PMS5003;47664;51.660;-0.100;2023-05-23T07:14:03;4;3;
61760;PMS5003;47664;51.660;-0.100;2023-05-23T07:16:30;8;6;
61760;PMS5003;47664;51.660;-0.100;2023-05-23T07:18:59;4;4;
61760;PMS5003;47664;51.660;-0.100;2023-05-23T07:21:27;13;6;
61760;PMS5003;47664;51.660;-0.100;2023-05-23T07:23:54;6;5;
61760;PMS5003;47664;51.660;-0.100;2023-05-23T07:26:21;5;4;
61760;PMS5003;47664;51.660;-0.100;2023-05-23T07:28:49;5;3;
61760;PMS5003;47664;51.660;-0.100;2023-05-23T07:31:17;5;5;
61760;PMS5003;47664;51.660;-0.100;2023-05-23T07:33:44;6;4;
61760;PMS5003;47664;51.660;-0.100;2023-05-23T07:36:11;10;5;
61760;PMS5003;47664;51.660;-0.100;2023-05-23T07:38:39;15;7;
61760;PMS5003;47664;51.660;-0.100;2023-05-23T07:41:06;5;3;
61760;PMS5003;47664;51.660;-0.100;2023-05-23T07:43:34;6;5;
61760;PMS5003;47664;51.660;-0.100;2023-05-23T07:46:02;5;5;
61760;PMS5003;47664;51.660;-0.100;2023-05-23T07:48:30;3;3;
61760;PMS5003;47664;51.660;-0.100;2023-05-23T07:50:57;6;6;
61760;PMS5003;47664;51.660;-0.100;2023-05-23T07:53:25;4;4;
61760;PMS5003;47664;51.660;-0.100;2023-05-23T07:55:52;2;2;
61760;PMS5003;47664;51.660;-0.100;2023-05-23T07:58:20;3;3;
61760;PMS5003;47664;51.660;-0.100;2023-05-23T08:00:48;7;3;
61760;PMS5003;47664;51.660;-0.100;2023-05-23T08:03:16;3;3;
61760;PMS5003;47664;51.660;-0.100;2023-05-23T08:05:43;3;3;
61760;PMS5003;47664;51.660;-0.100;2023-05-23T08:08:10;7;3;
61760;PMS5003;47664;51.660;-0.100;2023-05-23T08:10:38;3;3;
61760;PMS5003;47664;51.660;-0.100;2023-05-23T08:13:07;7;5;
61760;PMS5003;47664;51.660;-0.100;2023-05-23T08:15:35;2;2;
61760;PMS5003;47664;51.660;-0.100;2023-05-23T08:18:03;2;2;
61760;PMS5003;47664;51.660;-0.100;2023-05-23T08:20:30;4;4;
61760;PMS5003;47664;51.660;-0.100;2023-05-23T08:22:58;10;8;
61760;PMS5003;47664;51.660;-0.100;2023-05-23T08:25:26;4;2;
61760;PMS5003;47664;51.660;-0.100;2023-05-23T08:27:54;6;4;
61760;PMS5003;47664;51.660;-0.100;2023-05-23T08:30:22;3;3;
61760;PMS5003;47664;51.660;-0.100;2023-05-23T08:32:50;6;3;
61760;PMS5003;47664;51.660;-0.100;2023-05-23T08:35:18;8;5;
61760;PMS5003;47664;51.660;-0.100;2023-05-23T08:37:45;6;3;
61760;PMS5003;47664;51.660;-0.100;2023-05-23T08:40:14;7;4;
61760;PMS5003;47664;51.660;-0.100;2023-05-23T08:42:45;2;2;
61760;PMS5003;47664;51.660;-0.100;2023-05-23T08:45:13;7;5;
61760;PMS5003;47664;51.660;-0.100;2023-05-23T08:47:41;6;4;
61760;PMS5003;47664;51.660;-0.100;2023-05-23T08:50:11;10;8;
61760;PMS5003;47664;51.660;-0.100;2023-05-23T08:52:42;4;2;
61760;PMS5003;47664;51.660;-0.100;2023-05-23T08:55:13;2;2;
61760;PMS5003;47664;51.660;-0.100;2023-05-23T08:57:42;4;3;
61760;PMS5003;47664;51.660;-0.100;2023-05-23T09:00:11;2;2;
61760;PMS5003;47664;51.660;-0.100;2023-05-23T09:02:39;3;3;
61760;PMS5003;47664;51.660;-0.100;2023-05-23T09:05:10;4;3;
61760;PMS5003;47664;51.660;-0.100;2023-05-23T09:07:39;5;3;
61760;PMS5003;47664;51.660;-0.100;2023-05-23T09:10:07;3;3;
61760;PMS5003;47664;51.660;-0.100;2023-05-23T09:12:36;5;4;
61760;PMS5003;47664;51.660;-0.100;2023-05-23T09:15:04;5;3;
61760;PMS5003;47664;51.660;-0.100;2023-05-23T09:17:32;3;3;
61760;PMS5003;47664;51.660;-0.100;2023-05-23T09:20:00;4;3;
61760;PMS5003;47664;51.660;-0.100;2023-05-23T09:22:28;3;3;
61760;PMS5003;47664;51.660;-0.100;2023-05-23T09:24:56;5;2;
61760;PMS5003;47664;51.660;-0.100;2023-05-23T09:27:24;4;2;
61760;PMS5003;47664;51.660;-0.100;2023-05-23T09:29:52;7;2;
61760;PMS5003;47664;51.660;-0.100;2023-05-23T09:32:20;5;4;
61760;PMS5003;47664;51.660;-0.100;2023-05-23T09:34:56;3;2;
61760;PMS5003;47664;51.660;-0.100;2023-05-23T09:37:28;6;2;
61760;PMS5003;47664;51.660;-0.100;2023-05-23T09:39:56;3;1;
61760;PMS5003;47664;51.660;-0.100;2023-05-23T09:42:25;3;3;
61760;PMS5003;47664;51.660;-0.100;2023-05-23T09:44:58;8;5;
61760;PMS5003;47664;51.660;-0.100;2023-05-23T09:47:25;1;0;
61760;PMS5003;47664;51.660;-0.100;2023-05-23T09:49:53;4;1;
61760;PMS5003;47664;51.660;-0.100;2023-05-23T09:52:21;6;4;
61760;PMS5003;47664;51.660;-0.100;2023-05-23T09:54:49;4;3;
61760;PMS5003;47664;51.660;-0.100;2023-05-23T09:57:16;1;1;
61760;PMS5003;47664;51.660;-0.100;2023-05-23T09:59:51;3;3;
61760;PMS5003;47664;51.660;-0.100;2023-05-23T10:02:28;4;4;
61760;PMS5003;47664;51.660;-0.100;2023-05-23T10:05:26;2;2;
61760;PMS5003;47664;51.660;-0.100;2023-05-23T10:08:00;3;2;
61760;PMS5003;47664;51.660;-0.100;2023-05-23T10:10:47;2;2;
61760;PMS5003;47664;51.660;-0.100;2023-05-23T10:13:56;4;3;
61760;PMS5003;47664;51.660;-0.100;2023-05-23T10:16:29;5;2;
61760;PMS5003;47664;51.660;-0.100;2023-05-23T10:19:07;3;1;
61760;PMS5003;47664;51.660;-0.100;2023-05-23T10:21:43;2;2;
61760;PMS5003;47664;51.660;-0.100;2023-05-23T10:24:16;5;3;
61760;PMS5003;47664;51.660;-0.100;2023-05-23T10:26:44;3;1;
61760;PMS5003;47664;51.660;-0.100;2023-05-23T10:29:12;3;1;
61760;PMS5003;47664;51.660;-0.100;2023-05-23T10:31:40;4;1;
61760;PMS5003;47664;51.660;-0.100;2023-05-23T10:34:11;8;3;
61760;PMS5003;47664;51.660;-0.100;2023-05-23T10:36:49;5;2;
61760;PMS5003;47664;51.660;-0.100;2023-05-23T10:39:29;7;2;
61760;PMS5003;47664;51.660;-0.100;2023-05-23T10:42:03;4;3;
61760;PMS5003;47664;51.660;-0.100;2023-05-23T10:44:37;5;2;
61760;PMS5003;47664;51.660;-0.100;2023-05-23T10:47:05;9;5;
61760;PMS5003;47664;51.660;-0.100;2023-05-23T10:49:37;4;4;
61760;PMS5003;47664;51.660;-0.100;2023-05-23T10:52:06;5;3;
61760;PMS5003;47664;51.660;-0.100;2023-05-23T10:54:34;5;3;
61760;PMS5003;47664;51.660;-0.100;2023-05-23T10:57:02;3;3;
61760;PMS5003;47664;51.660;-0.100;2023-05-23T10:59:31;6;3;
61760;PMS5003;47664;51.660;-0.100;2023-05-23T11:01:59;7;4;
61760;PMS5003;47664;51.660;-0.100;2023-05-23T11:04:27;5;2;
61760;PMS5003;47664;51.660;-0.100;2023-05-23T11:06:55;6;3;
61760;PMS5003;47664;51.660;-0.100;2023-05-23T11:09:23;3;3;
61760;PMS5003;47664;51.660;-0.100;2023-05-23T11:11:51;6;3;
61760;PMS5003;47664;51.660;-0.100;2023-05-23T11:14:30;5;3;
61760;PMS5003;47664;51.660;-0.100;2023-05-23T11:16:59;5;3;
61760;PMS5003;47664;51.660;-0.100;2023-05-23T11:19:54;4;4;
61760;PMS5003;47664;51.660;-0.100;2023-05-23T11:22:26;5;3;
61760;PMS5003;47664;51.660;-0.100;2023-05-23T11:24:59;6;6;
61760;PMS5003;47664;51.660;-0.100;2023-05-23T11:27:27;4;3;
61760;PMS5003;47664;51.660;-0.100;2023-05-23T11:29:57;3;3;
61760;PMS5003;47664;51.660;-0.100;2023-05-23T11:32:27;4;4;
61760;PMS5003;47664;51.660;-0.100;2023-05-23T11:34:55;6;3;
61760;PMS5003;47664;51.660;-0.100;2023-05-23T11:37:26;3;3;
61760;PMS5003;47664;51.660;-0.100;2023-05-23T11:39:54;9;4;
61760;PMS5003;47664;51.660;-0.100;2023-05-23T11:42:22;5;3;
61760;PMS5003;47664;51.660;-0.100;2023-05-23T11:44:50;2;2;
61760;PMS5003;47664;51.660;-0.100;2023-05-23T11:47:18;4;3;
61760;PMS5003;47664;51.660;-0.100;2023-05-23T11:49:46;5;4;
61760;PMS5003;47664;51.660;-0.100;2023-05-23T11:52:14;3;2;
61760;PMS5003;47664;51.660;-0.100;2023-05-23T11:54:42;3;3;
61760;PMS5003;47664;51.660;-0.100;2023-05-23T11:57:10;4;4;
61760;PMS5003;47664;51.660;-0.100;2023-05-23T11:59:39;11;3;
61760;PMS5003;47664;51.660;-0.100;2023-05-23T12:02:07;5;3;
61760;PMS5003;47664;51.660;-0.100;2023-05-23T12:04:34;7;3;
61760;PMS5003;47664;51.660;-0.100;2023-05-23T12:07:03;3;3;
61760;PMS5003;47664;51.660;-0.100;2023-05-23T12:09:31;4;3;
61760;PMS5003;47664;51.660;-0.100;2023-05-23T12:12:08;5;3;
61760;PMS5003;47664;51.660;-0.100;2023-05-23T12:14:35;3;3;
61760;PMS5003;47664;51.660;-0.100;2023-05-23T12:17:03;4;3;
61760;PMS5003;47664;51.660;-0.100;2023-05-23T12:19:31;4;2;
61760;PMS5003;47664;51.660;-0.100;2023-05-23T12:22:04;4;2;
61760;PMS5003;47664;51.660;-0.100;2023-05-23T12:24:32;5;3;
61760;PMS5003;47664;51.660;-0.100;2023-05-23T12:27:01;4;4;
61760;PMS5003;47664;51.660;-0.100;2023-05-23T12:29:29;3;2;
61760;PMS5003;47664;51.660;-0.100;2023-05-23T12:31:59;3;3;
61760;PMS5003;47664;51.660;-0.100;2023-05-23T12:34:28;2;2;
61760;PMS5003;47664;51.660;-0.100;2023-05-23T12:36:55;10;9;
61760;PMS5003;47664;51.660;-0.100;2023-05-23T12:39:24;8;4;
61760;PMS5003;47664;51.660;-0.100;2023-05-23T12:41:53;6;3;
61760;PMS5003;47664;51.660;-0.100;2023-05-23T12:44:21;5;4;
61760;PMS5003;47664;51.660;-0.100;2023-05-23T12:46:49;5;3;
61760;PMS5003;47664;51.660;-0.100;2023-05-23T12:49:16;9;8;
61760;PMS5003;47664;51.660;-0.100;2023-05-23T12:51:44;6;5;
61760;PMS5003;47664;51.660;-0.100;2023-05-23T12:54:12;5;5;
61760;PMS5003;47664;51.660;-0.100;2023-05-23T12:56:40;5;1;
61760;PMS5003;47664;51.660;-0.100;2023-05-23T12:59:07;5;3;
61760;PMS5003;47664;51.660;-0.100;2023-05-23T13:01:35;5;2;
61760;PMS5003;47664;51.660;-0.100;2023-05-23T13:04:03;8;4;
61760;PMS5003;47664;51.660;-0.100;2023-05-23T13:06:31;5;2;
61760;PMS5003;47664;51.660;-0.100;2023-05-23T13:08:58;7;5;
61760;PMS5003;47664;51.660;-0.100;2023-05-23T13:11:26;3;3;
61760;PMS5003;47664;51.660;-0.100;2023-05-23T13:13:54;8;5;
61760;PMS5003;47664;51.660;-0.100;2023-05-23T13:16:22;2;2;
61760;PMS5003;47664;51.660;-0.100;2023-05-23T13:18:49;6;5;
61760;PMS5003;47664;51.660;-0.100;2023-05-23T13:21:17;7;2;
61760;PMS5003;47664;51.660;-0.100;2023-05-23T13:23:45;6;4;
61760;PMS5003;47664;51.660;-0.100;2023-05-23T13:26:13;5;3;
61760;PMS5003;47664;51.660;-0.100;2023-05-23T13:28:41;3;3;
61760;PMS5003;47664;51.660;-0.100;2023-05-23T13:31:09;3;3;
61760;PMS5003;47664;51.660;-0.100;2023-05-23T13:33:42;2;2;
61760;PMS5003;47664;51.660;-0.100;2023-05-23T13:36:14;5;5;
61760;PMS5003;47664;51.660;-0.100;2023-05-23T13:38:41;4;3;
61760;PMS5003;47664;51.660;-0.100;2023-05-23T13:41:08;6;4;
61760;PMS5003;47664;51.660;-0.100;2023-05-23T13:43:36;5;3;
61760;PMS5003;47664;51.660;-0.100;2023-05-23T13:46:03;4;2;
61760;PMS5003;47664;51.660;-0.100;2023-05-23T13:48:31;2;2;
61760;PMS5003;47664;51.660;-0.100;2023-05-23T13:50:59;5;5;
61760;PMS5003;47664;51.660;-0.100;2023-05-23T13:53:27;5;5;
61760;PMS5003;47664;51.660;-0.100;2023-05-23T13:55:55;4;3;
61760;PMS5003;47664;51.660;-0.100;2023-05-23T13:58:23;5;2;
61760;PMS5003;47664;51.660;-0.100;2023-05-23T14:00:51;7;4;
61760;PMS5003;47664;51.660;-0.100;2023-05-23T14:03:18;7;4;
61760;PMS5003;47664;51.660;-0.100;2023-05-23T14:05:46;2;2;
61760;PMS5003;47664;51.660;-0.100;2023-05-23T14:08:13;4;2;
61760;PMS5003;47664;51.660;-0.100;2023-05-23T14:10:42;3;3;
61760;PMS5003;47664;51.660;-0.100;2023-05-23T14:13:09;4;4;
61760;PMS5003;47664;51.660;-0.100;2023-05-23T14:15:36;8;5;
61760;PMS5003;47664;51.660;-0.100;2023-05-23T14:18:04;5;5;
61760;PMS5003;47664;51.660;-0.100;2023-05-23T14:20:32;4;2;
61760;PMS5003;47664;51.660;-0.100;2023-05-23T14:22:59;5;3;
61760;PMS5003;47664;51.660;-0.100;2023-05-23T14:25:27;2;2;
61760;PMS5003;47664;51.660;-0.100;2023-05-23T14:27:55;6;3;
61760;PMS5003;47664;51.660;-0.100;2023-05-23T14:30:23;4;3;
61760;PMS5003;47664;51.660;-0.100;2023-05-23T14:32:50;6;4;
61760;PMS5003;47664;51.660;-0.100;2023-05-23T14:35:18;9;7;
61760;PMS5003;47664;51.660;-0.100;2023-05-23T14:37:47;6;3;
61760;PMS5003;47664;51.660;-0.100;2023-05-23T14:40:14;4;3;
61760;PMS5003;47664;51.660;-0.100;2023-05-23T14:42:42;3;3;
61760;PMS5003;47664;51.660;-0.100;2023-05-23T14:45:10;8;4;
61760;PMS5003;47664;51.660;-0.100;2023-05-23T14:47:38;6;4;
61760;PMS5003;47664;51.660;-0.100;2023-05-23T14:50:07;4;3;
61760;PMS5003;47664;51.660;-0.100;2023-05-23T14:52:35;6;3;
61760;PMS5003;47664;51.660;-0.100;2023-05-23T14:55:02;5;4;
61760;PMS5003;47664;51.660;-0.100;2023-05-23T14:57:30;8;5;
61760;PMS5003;47664;51.660;-0.100;2023-05-23T14:59:57;4;3;
61760;PMS5003;47664;51.660;-0.100;2023-05-23T15:02:24;3;3;
61760;PMS5003;47664;51.660;-0.100;2023-05-23T15:04:52;3;3;
61760;PMS5003;47664;51.660;-0.100;2023-05-23T15:07:20;5;5;
61760;PMS5003;47664;51.660;-0.100;2023-05-23T15:09:48;3;3;
61760;PMS5003;47664;51.660;-0.100;2023-05-23T15:12:16;4;4;
61760;PMS5003;47664;51.660;-0.100;2023-05-23T15:14:44;5;3;
61760;PMS5003;47664;51.660;-0.100;2023-05-23T15:17:12;4;2;
61760;PMS5003;47664;51.660;-0.100;2023-05-23T15:19:40;7;4;
61760;PMS5003;47664;51.660;-0.100;2023-05-23T15:22:07;4;4;
61760;PMS5003;47664;51.660;-0.100;2023-05-23T15:24:35;4;3;
61760;PMS5003;47664;51.660;-0.100;2023-05-23T15:27:03;4;3;
61760;PMS5003;47664;51.660;-0.100;2023-05-23T15:29:31;6;3;
61760;PMS5003;47664;51.660;-0.100;2023-05-23T15:31:58;4;3;
61760;PMS5003;47664;51.660;-0.100;2023-05-23T15:34:26;3;3;
61760;PMS5003;47664;51.660;-0.100;2023-05-23T15:36:54;2;2;
61760;PMS5003;47664;51.660;-0.100;2023-05-23T15:39:21;5;4;
61760;PMS5003;47664;51.660;-0.100;2023-05-23T15:41:49;6;3;
61760;PMS5003;47664;51.660;-0.100;2023-05-23T15:44:17;5;2;
61760;PMS5003;47664;51.660;-0.100;2023-05-23T15:46:45;4;3;
61760;PMS5003;47664;51.660;-0.100;2023-05-23T15:49:13;6;5;
61760;PMS5003;47664;51.660;-0.100;2023-05-23T15:51:41;7;6;
61760;PMS5003;47664;51.660;-0.100;2023-05-23T15:54:09;6;5;
61760;PMS5003;47664;51.660;-0.100;2023-05-23T15:56:37;6;4;
61760;PMS5003;47664;51.660;-0.100;2023-05-23T15:59:06;9;3;
61760;PMS5003;47664;51.660;-0.100;2023-05-23T16:01:34;7;4;
61760;PMS5003;47664;51.660;-0.100;2023-05-23T16:04:02;6;3;
61760;PMS5003;47664;51.660;-0.100;2023-05-23T16:06:29;6;3;
61760;PMS5003;47664;51.660;-0.100;2023-05-23T16:08:57;3;3;
61760;PMS5003;47664;51.660;-0.100;2023-05-23T16:11:25;4;2;
61760;PMS5003;47664;51.660;-0.100;2023-05-23T16:13:53;1;1;
61760;PMS5003;47664;51.660;-0.100;2023-05-23T16:16:21;3;3;
61760;PMS5003;47664;51.660;-0.100;2023-05-23T16:18:48;5;5;
61760;PMS5003;47664;51.660;-0.100;2023-05-23T16:21:16;5;5;
61760;PMS5003;47664;51.660;-0.100;2023-05-23T16:23:43;4;2;
61760;PMS5003;47664;51.660;-0.100;2023-05-23T16:26:11;2;2;
61760;PMS5003;47664;51.660;-0.100;2023-05-23T16:28:39;4;4;
61760;PMS5003;47664;51.660;-0.100;2023-05-23T16:31:06;6;4;
61760;PMS5003;47664;51.660;-0.100;2023-05-23T16:33:34;6;3;
61760;PMS5003;47664;51.660;-0.100;2023-05-23T16:36:02;8;3;
61760;PMS5003;47664;51.660;-0.100;2023-05-23T16:38:31;5;3;
61760;PMS5003;47664;51.660;-0.100;2023-05-23T16:40:59;4;4;
61760;PMS5003;47664;51.660;-0.100;2023-05-23T16:43:26;5;5;
61760;PMS5003;47664;51.660;-0.100;2023-05-23T16:45:54;6;3;